Hawaii METAR Reports

 

PHOG - Kahului, Hawaii, USA
Distance from station: WNW 8mi, 13km
Updated: Mon, 19-Feb-2018 4:54am HST
Overcast
Overcast
 Wind from E
Wind: E 7 mph , 11 km/h
Temperature: 66°F , 19°C
Dew Point: 64°F , 18°C
Humidity: 94%
Barometer: 29.93 inHg , 1013.5 hPa
Clouds: Overcast
Visibility: 10 miles , 16 km
Cloud details: Overcast 3000 ft
2018/02/19 14:54 PHOG 191454Z AUTO 08006KT 10SM OVC030 19/18 A2993 RMK AO2 SLP141 T01940178 51015 TSNO
PHJH - Lahaina/West Mau, Hawaii, USA
Distance from station: WNW 24mi, 39km
Updated: Sun, 18-Feb-2018 5:45pm HST
NOT Current
Light rain, Showers, Mostly cloudy
Light rain, Showers, Mostly cloudy
 Wind from ENE
Wind: ENE 29 mph , 46 km/h, Gust: 41 mph , 67 km/h
Temperature: 66°F , 19°C
Dew Point: 64°F , 18°C
Humidity: 94%
Barometer: 29.95 inHg , 1014.2 hPa
Summary: Light rain, Showers
Clouds: Mostly Cloudy
Visibility: 8 miles , 13 km
Cloud details: Partly Cloudy 2000 ft
Partly Cloudy 5000 ft
Mostly Cloudy 9500 ft
2018/02/19 03:45 PHJH 190345Z 07025G36KT 8SM -SHRA SCT020 SCT050 BKN095 19/18 A2995 RMK LAST
 
PHNY - Lanai City Airpo, Hawaii, USA
Distance from station: W 40mi, 65km
Updated: Mon, 19-Feb-2018 4:56am HST
Clear
Clear
 Wind from N
Wind: N 12 mph , 19 km/h
Temperature: 63°F , 17°C
Dew Point: 57°F , 14°C
Humidity: 83%
Barometer: 29.96 inHg , 1014.6 hPa
Clouds: Clear
Visibility: 10 miles , 16 km
2018/02/19 14:56 PHNY 191456Z AUTO 01010KT 10SM CLR 17/14 A2996 RMK AO2 SLP134 P0002 60005 T01720144 55000
PHMK - Molokai, Hawaii, USA
Distance from station: WNW 55mi, 88km
Updated: Mon, 19-Feb-2018 4:54am HST
Rain, Clear
Rain, Clear
 Wind from N
Wind: N 8 mph , 13 km/h
Temperature: 66°F , 19°C
Dew Point: 64°F , 18°C
Humidity: 94%
Barometer: 29.94 inHg , 1013.9 hPa
Summary: Rain
Clouds: Clear
Visibility: 10 miles , 16 km
2018/02/19 14:54 PHMK 191454Z AUTO 01007KT 10SM RA CLR 19/18 A2994 RMK AO2 SLP143 P0000 60000 T01940178 56004 TSNO $
 
PHKO - Kailua/Kona, Hawaii, USA
Distance from station: SSE 79mi, 128km
Updated: Mon, 19-Feb-2018 4:53am HST
Clear
Clear
 Wind from SE
Wind: SE 10 mph , 17 km/h
Temperature: 68°F , 20°C
Dew Point: 57°F , 14°C
Humidity: 69%
Barometer: 29.87 inHg , 1011.5 hPa
Clouds: Clear
Visibility: 10 miles , 16 km
2018/02/19 14:53 PHKO 191453Z AUTO 14009KT 10SM CLR 20/14 A2987 RMK AO2 SLP115 T02000139 50003 TSNO
PHSF - Bradshaw Aaf/Haw, Hawaii, USA
Distance from station: SE 90mi, 145km
Updated: Mon, 19-Feb-2018 4:56am HST
Few Clouds
Few Clouds
 Wind from NW
Wind: NW 3 mph , 6 km/h
Temperature: 50°F , 10°C
Dew Point: 41°F , 5°C
Humidity: 71%
Barometer: 30.22 inHg , 1023.4 hPa
Clouds: Few Clouds
Visibility: 10 miles , 16 km
Cloud details: Few Clouds 3700 ft
2018/02/19 14:56 PHSF 191456Z AUTO 31003KT 10SM FEW037 10/05 A3022 RMK AO2 SLP136 WND DATA ESTMD T00950050 50000 $
 
PHNG - Kaneohe Mcas, Hawaii, USA
Distance from station: WNW 102mi, 164km
Updated: Mon, 19-Feb-2018 4:57am HST
Clear
Clear
 Wind from calm
Wind: Calm
Temperature: 63°F , 17°C
Dew Point: 63°F , 17°C
Humidity: 100%
Barometer: 29.91 inHg , 1012.9 hPa
Clouds: Clear
Visibility: 10 miles , 16 km
2018/02/19 14:57 PHNG 191457Z 00000KT 10SM CLR 17/17 A2991 RMK AO2 SLP124 T01720167 55007 $
PHNL - Honolulu, Hawaii, USA
Distance from station: WNW 108mi, 174km
Updated: Mon, 19-Feb-2018 4:53am HST
Partly Cloudy
Partly Cloudy
 Wind from calm
Wind: Calm
Temperature: 64°F , 18°C
Dew Point: 57°F , 14°C
Humidity: 78%
Barometer: 29.93 inHg , 1013.5 hPa
Clouds: Partly Cloudy
Visibility: 10 miles , 16 km
Cloud details: Few Clouds 2900 ft
Few Clouds 5000 ft
Partly Cloudy 18000 ft
2018/02/19 14:53 PHNL 191453Z 00000KT 10SM FEW029 FEW050 SCT180 18/14 A2993 RMK AO2 SLP135 T01780144 55010 $
 
PHTO - Hilo, Hawaii, USA
Distance from station: SE 114mi, 183km
Updated: Mon, 19-Feb-2018 4:53am HST
Clear
Clear
 Wind from calm
Wind: Calm
Temperature: 64°F , 18°C
Dew Point: 61°F , 16°C
Humidity: 88%
Barometer: 29.89 inHg , 1012.2 hPa
Clouds: Clear
Visibility: 10 miles , 16 km
2018/02/19 14:53 PHTO 191453Z AUTO 00000KT 10SM CLR 18/16 A2989 RMK AO2 SLP121 T01780161 55018 TSNO
PHJR - Kalaeloa, Hawaii, USA
Distance from station: WNW 117mi, 189km
Updated: Mon, 19-Feb-2018 4:53am HST
Clear
Clear
 Wind from NE
Wind: NE 5 mph , 7 km/h
Temperature: 61°F , 16°C
Dew Point: 61°F , 16°C
Humidity: 100%
Barometer: 29.94 inHg , 1013.9 hPa
Clouds: Clear
Visibility: 10 miles , 16 km
2018/02/19 14:53 PHJR 191453Z AUTO 04004KT 10SM CLR 16/16 A2994 RMK AO2 SLP145 T01610156 55010 TSNO $
 
PHHI - Wheeler Afb/Oahu, Hawaii, USA
Distance from station: WNW 120mi, 193km
Updated: Mon, 19-Feb-2018 4:56am HST
Partly Cloudy
Partly Cloudy
 Wind from NW
Wind: NW 5 mph , 7 km/h
Temperature: 57°F , 14°C
Dew Point: 57°F , 14°C
Humidity: 100%
Barometer: 29.96 inHg , 1014.6 hPa
Clouds: Partly Cloudy
Visibility: 10 miles , 16 km
Cloud details: Partly Cloudy 17000 ft
2018/02/19 14:56 PHHI 191456Z AUTO 32004KT 10SM SCT170 14/14 A2996 RMK AO2 SLP144 T01410139 55012 $
PHLI - Lihue/Kauai Is, Hawaii, USA
Distance from station: WNW 209mi, 336km
Updated: Mon, 19-Feb-2018 4:53am HST
Clear
Clear
 Wind from W
Wind: W 6 mph , 9 km/h
Temperature: 61°F , 16°C
Dew Point: 59°F , 15°C
Humidity: 94%
Barometer: 29.95 inHg , 1014.2 hPa
Clouds: Clear
Visibility: 10 miles , 16 km
2018/02/19 14:53 PHLI 191453Z AUTO 28005KT 10SM CLR 16/15 A2995 RMK AO2 SLP139 T01610150 56012 TSNO
 
PHBK - Barking Sands/Ka, Hawaii, USA
Distance from station: WNW 237mi, 382km
Updated: Mon, 19-Feb-2018 4:56am HST
Clear
Clear
 Wind from E
Wind: E 3 mph , 6 km/h
Temperature: 64°F , 18°C
Dew Point: 61°F , 16°C
Humidity: 88%
Barometer: 29.92 inHg , 1013.2 hPa
Clouds: Clear
Visibility: 10 miles , 16 km
2018/02/19 14:56 PHBK 191456Z AUTO 08003KT 10SM CLR 18/16 A2992 RMK AO2 SLP134 T01780161 56011